sensor_id;sensor_type;location;lat;lon;timestamp;P1;durP1;ratioP1;P2;durP2;ratioP2
75289;SDS011;63883;48.996;20.804;2023-07-24T00:00:57;4.82;;;3.70;;
75289;SDS011;63883;48.996;20.804;2023-07-24T00:03:30;4.55;;;3.60;;
75289;SDS011;63883;48.996;20.804;2023-07-24T00:05:59;5.60;;;3.70;;
75289;SDS011;63883;48.996;20.804;2023-07-24T00:08:25;4.38;;;3.50;;
75289;SDS011;63883;48.996;20.804;2023-07-24T00:10:51;5.22;;;3.90;;
75289;SDS011;63883;48.996;20.804;2023-07-24T00:13:16;5.60;;;3.63;;
75289;SDS011;63883;48.996;20.804;2023-07-24T00:15:42;5.13;;;4.05;;
75289;SDS011;63883;48.996;20.804;2023-07-24T00:18:08;5.88;;;3.53;;
75289;SDS011;63883;48.996;20.804;2023-07-24T00:20:34;4.38;;;3.47;;
75289;SDS011;63883;48.996;20.804;2023-07-24T00:22:59;6.10;;;3.83;;
75289;SDS011;63883;48.996;20.804;2023-07-24T00:25:25;4.30;;;3.55;;
75289;SDS011;63883;48.996;20.804;2023-07-24T00:27:50;4.60;;;3.75;;
75289;SDS011;63883;48.996;20.804;2023-07-24T00:30:16;4.50;;;3.58;;
75289;SDS011;63883;48.996;20.804;2023-07-24T00:32:42;4.80;;;3.45;;
75289;SDS011;63883;48.996;20.804;2023-07-24T00:35:08;5.60;;;3.30;;
75289;SDS011;63883;48.996;20.804;2023-07-24T00:37:34;4.50;;;3.55;;
75289;SDS011;63883;48.996;20.804;2023-07-24T00:40:00;5.00;;;3.92;;
75289;SDS011;63883;48.996;20.804;2023-07-24T00:42:26;4.20;;;3.55;;
75289;SDS011;63883;48.996;20.804;2023-07-24T00:44:52;4.00;;;3.60;;
75289;SDS011;63883;48.996;20.804;2023-07-24T00:47:18;5.47;;;4.25;;
75289;SDS011;63883;48.996;20.804;2023-07-24T00:49:44;6.05;;;4.13;;
75289;SDS011;63883;48.996;20.804;2023-07-24T00:52:10;5.47;;;3.90;;
75289;SDS011;63883;48.996;20.804;2023-07-24T00:54:36;8.10;;;4.00;;
75289;SDS011;63883;48.996;20.804;2023-07-24T00:57:03;5.63;;;3.70;;
75289;SDS011;63883;48.996;20.804;2023-07-24T00:59:30;5.03;;;3.63;;
75289;SDS011;63883;48.996;20.804;2023-07-24T01:01:56;4.80;;;3.60;;
75289;SDS011;63883;48.996;20.804;2023-07-24T01:04:22;5.40;;;3.80;;
75289;SDS011;63883;48.996;20.804;2023-07-24T01:06:48;6.50;;;4.00;;
75289;SDS011;63883;48.996;20.804;2023-07-24T01:09:14;4.85;;;3.70;;
75289;SDS011;63883;48.996;20.804;2023-07-24T01:14:20;5.45;;;3.83;;
75289;SDS011;63883;48.996;20.804;2023-07-24T01:16:48;5.10;;;3.60;;
75289;SDS011;63883;48.996;20.804;2023-07-24T01:21:44;5.18;;;3.90;;
75289;SDS011;63883;48.996;20.804;2023-07-24T01:24:52;4.90;;;3.63;;
75289;SDS011;63883;48.996;20.804;2023-07-24T01:27:20;4.22;;;3.65;;
75289;SDS011;63883;48.996;20.804;2023-07-24T01:29:49;4.80;;;3.75;;
75289;SDS011;63883;48.996;20.804;2023-07-24T01:32:14;5.03;;;3.70;;
75289;SDS011;63883;48.996;20.804;2023-07-24T01:34:40;5.25;;;3.83;;
75289;SDS011;63883;48.996;20.804;2023-07-24T01:37:06;5.03;;;3.80;;
75289;SDS011;63883;48.996;20.804;2023-07-24T01:39:32;4.47;;;3.30;;
75289;SDS011;63883;48.996;20.804;2023-07-24T01:41:59;5.18;;;3.90;;
75289;SDS011;63883;48.996;20.804;2023-07-24T01:44:25;5.40;;;3.80;;
75289;SDS011;63883;48.996;20.804;2023-07-24T01:46:50;6.82;;;4.13;;
75289;SDS011;63883;48.996;20.804;2023-07-24T01:49:16;4.97;;;3.80;;
75289;SDS011;63883;48.996;20.804;2023-07-24T01:51:42;5.30;;;3.72;;
75289;SDS011;63883;48.996;20.804;2023-07-24T01:54:07;5.43;;;3.90;;
75289;SDS011;63883;48.996;20.804;2023-07-24T01:56:35;5.10;;;4.10;;
75289;SDS011;63883;48.996;20.804;2023-07-24T02:01:27;4.57;;;3.72;;
75289;SDS011;63883;48.996;20.804;2023-07-24T02:03:52;6.03;;;3.95;;
75289;SDS011;63883;48.996;20.804;2023-07-24T02:06:18;5.57;;;3.90;;
75289;SDS011;63883;48.996;20.804;2023-07-24T02:08:44;5.07;;;3.88;;
75289;SDS011;63883;48.996;20.804;2023-07-24T02:11:17;4.68;;;3.78;;
75289;SDS011;63883;48.996;20.804;2023-07-24T02:13:44;5.65;;;3.80;;
75289;SDS011;63883;48.996;20.804;2023-07-24T02:16:11;5.70;;;3.80;;
75289;SDS011;63883;48.996;20.804;2023-07-24T02:18:38;5.53;;;3.80;;
75289;SDS011;63883;48.996;20.804;2023-07-24T02:21:05;5.70;;;3.78;;
75289;SDS011;63883;48.996;20.804;2023-07-24T02:23:31;5.00;;;3.70;;
75289;SDS011;63883;48.996;20.804;2023-07-24T02:25:57;4.90;;;3.90;;
75289;SDS011;63883;48.996;20.804;2023-07-24T02:28:22;5.03;;;3.80;;
75289;SDS011;63883;48.996;20.804;2023-07-24T02:30:48;5.57;;;3.72;;
75289;SDS011;63883;48.996;20.804;2023-07-24T02:33:14;4.93;;;3.92;;
75289;SDS011;63883;48.996;20.804;2023-07-24T02:35:40;5.40;;;4.00;;
75289;SDS011;63883;48.996;20.804;2023-07-24T02:38:07;4.40;;;3.78;;
75289;SDS011;63883;48.996;20.804;2023-07-24T02:40:33;4.38;;;3.65;;
75289;SDS011;63883;48.996;20.804;2023-07-24T02:42:59;7.40;;;3.80;;
75289;SDS011;63883;48.996;20.804;2023-07-24T02:45:25;5.57;;;3.90;;
75289;SDS011;63883;48.996;20.804;2023-07-24T02:47:50;5.32;;;3.83;;
75289;SDS011;63883;48.996;20.804;2023-07-24T02:50:16;5.45;;;3.90;;
75289;SDS011;63883;48.996;20.804;2023-07-24T02:52:42;5.80;;;3.72;;
75289;SDS011;63883;48.996;20.804;2023-07-24T02:55:07;5.97;;;3.85;;
75289;SDS011;63883;48.996;20.804;2023-07-24T02:57:33;5.07;;;4.00;;
75289;SDS011;63883;48.996;20.804;2023-07-24T02:59:59;5.15;;;4.20;;
75289;SDS011;63883;48.996;20.804;2023-07-24T03:02:24;5.22;;;3.78;;
75289;SDS011;63883;48.996;20.804;2023-07-24T03:04:50;6.15;;;4.07;;
75289;SDS011;63883;48.996;20.804;2023-07-24T03:07:16;6.20;;;3.67;;
75289;SDS011;63883;48.996;20.804;2023-07-24T03:09:41;6.53;;;4.05;;
75289;SDS011;63883;48.996;20.804;2023-07-24T03:12:07;5.90;;;3.63;;
75289;SDS011;63883;48.996;20.804;2023-07-24T03:14:33;4.43;;;3.80;;
75289;SDS011;63883;48.996;20.804;2023-07-24T03:16:59;4.57;;;3.90;;
75289;SDS011;63883;48.996;20.804;2023-07-24T03:19:24;6.65;;;4.00;;
75289;SDS011;63883;48.996;20.804;2023-07-24T03:21:50;4.95;;;3.72;;
75289;SDS011;63883;48.996;20.804;2023-07-24T03:24:16;6.00;;;3.85;;
75289;SDS011;63883;48.996;20.804;2023-07-24T03:26:42;6.40;;;4.20;;
75289;SDS011;63883;48.996;20.804;2023-07-24T03:29:08;5.88;;;3.90;;
75289;SDS011;63883;48.996;20.804;2023-07-24T03:31:33;5.22;;;4.30;;
75289;SDS011;63883;48.996;20.804;2023-07-24T03:33:59;4.40;;;3.90;;
75289;SDS011;63883;48.996;20.804;2023-07-24T03:36:25;5.15;;;3.78;;
75289;SDS011;63883;48.996;20.804;2023-07-24T03:38:50;8.73;;;4.57;;
75289;SDS011;63883;48.996;20.804;2023-07-24T03:41:16;5.20;;;3.75;;
75289;SDS011;63883;48.996;20.804;2023-07-24T03:43:42;6.53;;;3.53;;
75289;SDS011;63883;48.996;20.804;2023-07-24T03:46:07;6.03;;;4.20;;
75289;SDS011;63883;48.996;20.804;2023-07-24T03:48:33;5.20;;;4.03;;
75289;SDS011;63883;48.996;20.804;2023-07-24T03:51:00;5.82;;;4.50;;
75289;SDS011;63883;48.996;20.804;2023-07-24T03:53:26;5.50;;;4.10;;
75289;SDS011;63883;48.996;20.804;2023-07-24T03:55:52;5.07;;;4.10;;
75289;SDS011;63883;48.996;20.804;2023-07-24T03:58:18;7.50;;;4.70;;
75289;SDS011;63883;48.996;20.804;2023-07-24T04:00:44;6.15;;;4.10;;
75289;SDS011;63883;48.996;20.804;2023-07-24T04:03:10;7.97;;;4.30;;
75289;SDS011;63883;48.996;20.804;2023-07-24T04:05:36;6.30;;;4.50;;
75289;SDS011;63883;48.996;20.804;2023-07-24T04:08:02;6.55;;;4.40;;
75289;SDS011;63883;48.996;20.804;2023-07-24T04:10:28;6.15;;;4.10;;
75289;SDS011;63883;48.996;20.804;2023-07-24T04:12:55;6.10;;;4.15;;
75289;SDS011;63883;48.996;20.804;2023-07-24T04:15:22;5.35;;;4.22;;
75289;SDS011;63883;48.996;20.804;2023-07-24T04:17:48;6.95;;;4.85;;
75289;SDS011;63883;48.996;20.804;2023-07-24T04:20:14;5.72;;;4.03;;
75289;SDS011;63883;48.996;20.804;2023-07-24T04:22:39;6.20;;;4.82;;
75289;SDS011;63883;48.996;20.804;2023-07-24T04:25:05;7.25;;;4.63;;
75289;SDS011;63883;48.996;20.804;2023-07-24T04:27:31;8.10;;;4.40;;
75289;SDS011;63883;48.996;20.804;2023-07-24T04:29:57;6.28;;;4.30;;
75289;SDS011;63883;48.996;20.804;2023-07-24T04:32:22;5.88;;;4.10;;
75289;SDS011;63883;48.996;20.804;2023-07-24T04:34:48;5.63;;;4.43;;
75289;SDS011;63883;48.996;20.804;2023-07-24T04:37:14;5.57;;;3.72;;
75289;SDS011;63883;48.996;20.804;2023-07-24T04:39:39;6.93;;;4.65;;
75289;SDS011;63883;48.996;20.804;2023-07-24T04:42:05;6.15;;;4.40;;
75289;SDS011;63883;48.996;20.804;2023-07-24T04:44:31;5.03;;;4.30;;
75289;SDS011;63883;48.996;20.804;2023-07-24T04:46:57;7.78;;;4.30;;
75289;SDS011;63883;48.996;20.804;2023-07-24T04:49:23;5.20;;;4.40;;
75289;SDS011;63883;48.996;20.804;2023-07-24T04:51:50;5.22;;;4.13;;
75289;SDS011;63883;48.996;20.804;2023-07-24T04:54:16;5.60;;;4.15;;
75289;SDS011;63883;48.996;20.804;2023-07-24T04:56:42;6.03;;;4.35;;
75289;SDS011;63883;48.996;20.804;2023-07-24T04:59:08;5.35;;;3.90;;
75289;SDS011;63883;48.996;20.804;2023-07-24T05:01:34;6.55;;;4.55;;
75289;SDS011;63883;48.996;20.804;2023-07-24T05:03:59;6.82;;;4.22;;
75289;SDS011;63883;48.996;20.804;2023-07-24T05:06:25;5.43;;;4.05;;
75289;SDS011;63883;48.996;20.804;2023-07-24T05:08:54;5.13;;;4.07;;
75289;SDS011;63883;48.996;20.804;2023-07-24T05:11:20;7.20;;;4.55;;
75289;SDS011;63883;48.996;20.804;2023-07-24T05:13:46;4.82;;;3.97;;
75289;SDS011;63883;48.996;20.804;2023-07-24T05:16:11;5.43;;;4.15;;
75289;SDS011;63883;48.996;20.804;2023-07-24T05:18:37;6.85;;;4.78;;
75289;SDS011;63883;48.996;20.804;2023-07-24T05:21:03;6.10;;;4.22;;
75289;SDS011;63883;48.996;20.804;2023-07-24T05:23:29;5.25;;;4.32;;
75289;SDS011;63883;48.996;20.804;2023-07-24T05:25:58;5.53;;;4.30;;
75289;SDS011;63883;48.996;20.804;2023-07-24T05:28:28;4.78;;;3.97;;
75289;SDS011;63883;48.996;20.804;2023-07-24T05:30:54;4.93;;;4.00;;
75289;SDS011;63883;48.996;20.804;2023-07-24T05:33:20;5.35;;;4.10;;
75289;SDS011;63883;48.996;20.804;2023-07-24T05:35:47;7.22;;;4.78;;
75289;SDS011;63883;48.996;20.804;2023-07-24T05:38:14;6.43;;;4.30;;
75289;SDS011;63883;48.996;20.804;2023-07-24T05:40:39;5.22;;;4.47;;
75289;SDS011;63883;48.996;20.804;2023-07-24T05:43:05;5.57;;;4.32;;
75289;SDS011;63883;48.996;20.804;2023-07-24T05:45:30;7.05;;;4.75;;
75289;SDS011;63883;48.996;20.804;2023-07-24T05:47:56;6.38;;;4.90;;
75289;SDS011;63883;48.996;20.804;2023-07-24T05:50:22;6.88;;;4.50;;
75289;SDS011;63883;48.996;20.804;2023-07-24T05:52:47;7.30;;;4.82;;
75289;SDS011;63883;48.996;20.804;2023-07-24T05:55:13;5.95;;;4.55;;
75289;SDS011;63883;48.996;20.804;2023-07-24T05:57:39;5.82;;;4.03;;
75289;SDS011;63883;48.996;20.804;2023-07-24T06:00:05;4.68;;;3.95;;
75289;SDS011;63883;48.996;20.804;2023-07-24T06:02:31;5.07;;;4.20;;
75289;SDS011;63883;48.996;20.804;2023-07-24T06:04:57;6.47;;;4.30;;
75289;SDS011;63883;48.996;20.804;2023-07-24T06:07:23;6.32;;;4.53;;
75289;SDS011;63883;48.996;20.804;2023-07-24T06:09:48;6.47;;;4.43;;
75289;SDS011;63883;48.996;20.804;2023-07-24T06:12:15;5.47;;;4.43;;
75289;SDS011;63883;48.996;20.804;2023-07-24T06:14:40;6.13;;;4.00;;
75289;SDS011;63883;48.996;20.804;2023-07-24T06:17:06;6.00;;;4.20;;
75289;SDS011;63883;48.996;20.804;2023-07-24T06:19:32;7.97;;;4.68;;
75289;SDS011;63883;48.996;20.804;2023-07-24T06:21:58;5.90;;;4.30;;
75289;SDS011;63883;48.996;20.804;2023-07-24T06:24:23;6.45;;;4.57;;
75289;SDS011;63883;48.996;20.804;2023-07-24T06:26:50;6.38;;;4.70;;
75289;SDS011;63883;48.996;20.804;2023-07-24T06:29:16;5.60;;;4.13;;
75289;SDS011;63883;48.996;20.804;2023-07-24T06:31:41;7.28;;;4.43;;
75289;SDS011;63883;48.996;20.804;2023-07-24T06:34:07;5.88;;;4.38;;
75289;SDS011;63883;48.996;20.804;2023-07-24T06:36:33;5.72;;;4.45;;
75289;SDS011;63883;48.996;20.804;2023-07-24T06:38:58;5.32;;;4.30;;
75289;SDS011;63883;48.996;20.804;2023-07-24T06:41:24;5.82;;;4.13;;
75289;SDS011;63883;48.996;20.804;2023-07-24T06:43:50;5.88;;;4.20;;
75289;SDS011;63883;48.996;20.804;2023-07-24T06:46:17;5.18;;;4.30;;
75289;SDS011;63883;48.996;20.804;2023-07-24T06:48:42;7.30;;;4.30;;
75289;SDS011;63883;48.996;20.804;2023-07-24T06:51:08;5.95;;;4.22;;
75289;SDS011;63883;48.996;20.804;2023-07-24T06:53:34;6.25;;;4.65;;
75289;SDS011;63883;48.996;20.804;2023-07-24T06:56:00;5.57;;;4.10;;
75289;SDS011;63883;48.996;20.804;2023-07-24T06:58:26;5.68;;;4.40;;
75289;SDS011;63883;48.996;20.804;2023-07-24T07:00:51;5.93;;;4.35;;
75289;SDS011;63883;48.996;20.804;2023-07-24T07:03:18;5.55;;;4.47;;
75289;SDS011;63883;48.996;20.804;2023-07-24T07:05:43;5.47;;;4.47;;
75289;SDS011;63883;48.996;20.804;2023-07-24T07:08:09;6.40;;;4.18;;
75289;SDS011;63883;48.996;20.804;2023-07-24T07:10:35;5.40;;;4.05;;
75289;SDS011;63883;48.996;20.804;2023-07-24T07:13:00;6.75;;;4.45;;
75289;SDS011;63883;48.996;20.804;2023-07-24T07:15:26;5.72;;;4.28;;
75289;SDS011;63883;48.996;20.804;2023-07-24T07:17:52;5.35;;;4.30;;
75289;SDS011;63883;48.996;20.804;2023-07-24T07:20:18;7.80;;;4.78;;
75289;SDS011;63883;48.996;20.804;2023-07-24T07:22:43;7.55;;;4.80;;
75289;SDS011;63883;48.996;20.804;2023-07-24T07:25:09;7.90;;;4.57;;
75289;SDS011;63883;48.996;20.804;2023-07-24T07:27:35;7.50;;;5.10;;
75289;SDS011;63883;48.996;20.804;2023-07-24T07:30:00;9.27;;;5.32;;
75289;SDS011;63883;48.996;20.804;2023-07-24T07:32:26;7.22;;;5.38;;
75289;SDS011;63883;48.996;20.804;2023-07-24T07:34:52;9.32;;;5.30;;
75289;SDS011;63883;48.996;20.804;2023-07-24T07:37:18;9.00;;;5.10;;
75289;SDS011;63883;48.996;20.804;2023-07-24T07:39:44;9.57;;;5.70;;
75289;SDS011;63883;48.996;20.804;2023-07-24T07:42:09;10.18;;;5.60;;
75289;SDS011;63883;48.996;20.804;2023-07-24T07:44:35;8.73;;;5.72;;
75289;SDS011;63883;48.996;20.804;2023-07-24T07:47:01;9.63;;;5.32;;
75289;SDS011;63883;48.996;20.804;2023-07-24T07:49:26;10.52;;;5.30;;
75289;SDS011;63883;48.996;20.804;2023-07-24T07:51:52;8.05;;;5.10;;
75289;SDS011;63883;48.996;20.804;2023-07-24T07:54:18;8.18;;;5.22;;
75289;SDS011;63883;48.996;20.804;2023-07-24T07:56:44;8.45;;;5.40;;
75289;SDS011;63883;48.996;20.804;2023-07-24T07:59:09;6.05;;;4.88;;
75289;SDS011;63883;48.996;20.804;2023-07-24T08:01:38;6.75;;;5.03;;
75289;SDS011;63883;48.996;20.804;2023-07-24T08:04:07;6.22;;;4.82;;
75289;SDS011;63883;48.996;20.804;2023-07-24T08:06:33;6.22;;;4.75;;
75289;SDS011;63883;48.996;20.804;2023-07-24T08:08:59;6.90;;;4.80;;
75289;SDS011;63883;48.996;20.804;2023-07-24T08:11:24;8.18;;;5.20;;
75289;SDS011;63883;48.996;20.804;2023-07-24T08:13:50;6.57;;;4.88;;
75289;SDS011;63883;48.996;20.804;2023-07-24T08:16:16;6.78;;;4.70;;
75289;SDS011;63883;48.996;20.804;2023-07-24T08:18:45;7.60;;;5.15;;
75289;SDS011;63883;48.996;20.804;2023-07-24T08:21:12;6.93;;;5.15;;
75289;SDS011;63883;48.996;20.804;2023-07-24T08:23:39;6.28;;;4.97;;
75289;SDS011;63883;48.996;20.804;2023-07-24T08:26:05;7.00;;;5.07;;
75289;SDS011;63883;48.996;20.804;2023-07-24T08:28:31;7.80;;;5.03;;
75289;SDS011;63883;48.996;20.804;2023-07-24T08:30:57;8.07;;;5.40;;
75289;SDS011;63883;48.996;20.804;2023-07-24T08:33:24;6.60;;;4.60;;
75289;SDS011;63883;48.996;20.804;2023-07-24T08:36:05;6.93;;;5.00;;
75289;SDS011;63883;48.996;20.804;2023-07-24T08:38:33;7.18;;;4.93;;
75289;SDS011;63883;48.996;20.804;2023-07-24T08:41:00;6.78;;;4.80;;
75289;SDS011;63883;48.996;20.804;2023-07-24T08:43:33;7.53;;;4.88;;
75289;SDS011;63883;48.996;20.804;2023-07-24T08:45:59;6.68;;;4.70;;
75289;SDS011;63883;48.996;20.804;2023-07-24T08:48:29;7.50;;;4.70;;
75289;SDS011;63883;48.996;20.804;2023-07-24T08:50:59;6.22;;;4.80;;
75289;SDS011;63883;48.996;20.804;2023-07-24T08:53:25;6.55;;;4.70;;
75289;SDS011;63883;48.996;20.804;2023-07-24T08:55:53;7.15;;;4.90;;
75289;SDS011;63883;48.996;20.804;2023-07-24T08:58:20;8.27;;;4.93;;
75289;SDS011;63883;48.996;20.804;2023-07-24T09:00:45;6.18;;;4.43;;
75289;SDS011;63883;48.996;20.804;2023-07-24T09:03:12;6.03;;;4.93;;
75289;SDS011;63883;48.996;20.804;2023-07-24T09:05:37;6.68;;;4.82;;
75289;SDS011;63883;48.996;20.804;2023-07-24T09:08:03;6.93;;;4.80;;
75289;SDS011;63883;48.996;20.804;2023-07-24T09:10:29;7.15;;;4.63;;
75289;SDS011;63883;48.996;20.804;2023-07-24T09:12:55;6.00;;;4.68;;
75289;SDS011;63883;48.996;20.804;2023-07-24T09:15:20;6.63;;;4.72;;
75289;SDS011;63883;48.996;20.804;2023-07-24T09:17:50;5.65;;;4.60;;
75289;SDS011;63883;48.996;20.804;2023-07-24T09:20:17;7.80;;;4.70;;
75289;SDS011;63883;48.996;20.804;2023-07-24T09:25:16;5.72;;;4.68;;
75289;SDS011;63883;48.996;20.804;2023-07-24T09:27:42;6.22;;;4.47;;
75289;SDS011;63883;48.996;20.804;2023-07-24T09:30:13;6.47;;;4.43;;
75289;SDS011;63883;48.996;20.804;2023-07-24T09:32:40;6.18;;;4.50;;
75289;SDS011;63883;48.996;20.804;2023-07-24T09:35:15;7.47;;;4.60;;
75289;SDS011;63883;48.996;20.804;2023-07-24T09:37:43;5.93;;;4.57;;
75289;SDS011;63883;48.996;20.804;2023-07-24T09:40:10;6.55;;;4.75;;
75289;SDS011;63883;48.996;20.804;2023-07-24T09:42:37;7.15;;;4.50;;
75289;SDS011;63883;48.996;20.804;2023-07-24T09:45:05;6.18;;;4.93;;
75289;SDS011;63883;48.996;20.804;2023-07-24T09:47:31;5.90;;;4.70;;
75289;SDS011;63883;48.996;20.804;2023-07-24T09:49:57;7.05;;;4.93;;
75289;SDS011;63883;48.996;20.804;2023-07-24T09:52:26;5.75;;;4.38;;
75289;SDS011;63883;48.996;20.804;2023-07-24T09:55:15;5.88;;;4.38;;
75289;SDS011;63883;48.996;20.804;2023-07-24T09:57:55;6.05;;;4.15;;
75289;SDS011;63883;48.996;20.804;2023-07-24T10:00:23;7.60;;;4.50;;
75289;SDS011;63883;48.996;20.804;2023-07-24T10:02:49;6.00;;;4.60;;
75289;SDS011;63883;48.996;20.804;2023-07-24T10:05:15;5.20;;;4.22;;
75289;SDS011;63883;48.996;20.804;2023-07-24T10:07:43;6.78;;;4.63;;
75289;SDS011;63883;48.996;20.804;2023-07-24T10:10:08;5.55;;;4.55;;
75289;SDS011;63883;48.996;20.804;2023-07-24T10:12:35;6.25;;;4.80;;
75289;SDS011;63883;48.996;20.804;2023-07-24T10:15:02;6.88;;;4.80;;
75289;SDS011;63883;48.996;20.804;2023-07-24T10:17:37;7.22;;;4.65;;
75289;SDS011;63883;48.996;20.804;2023-07-24T10:20:04;6.93;;;4.68;;
75289;SDS011;63883;48.996;20.804;2023-07-24T10:22:32;5.95;;;4.60;;
75289;SDS011;63883;48.996;20.804;2023-07-24T10:24:58;6.38;;;4.68;;
75289;SDS011;63883;48.996;20.804;2023-07-24T10:27:24;6.78;;;4.80;;
75289;SDS011;63883;48.996;20.804;2023-07-24T10:30:01;6.45;;;5.10;;
75289;SDS011;63883;48.996;20.804;2023-07-24T10:32:28;6.55;;;4.90;;
75289;SDS011;63883;48.996;20.804;2023-07-24T10:35:05;6.50;;;4.97;;
75289;SDS011;63883;48.996;20.804;2023-07-24T10:37:34;6.45;;;4.80;;
75289;SDS011;63883;48.996;20.804;2023-07-24T10:40:01;6.50;;;4.80;;
75289;SDS011;63883;48.996;20.804;2023-07-24T10:42:29;5.95;;;4.82;;
75289;SDS011;63883;48.996;20.804;2023-07-24T10:45:08;7.30;;;4.85;;
75289;SDS011;63883;48.996;20.804;2023-07-24T10:47:35;6.55;;;4.95;;
75289;SDS011;63883;48.996;20.804;2023-07-24T10:50:01;7.20;;;4.90;;
75289;SDS011;63883;48.996;20.804;2023-07-24T10:52:31;6.18;;;5.00;;
75289;SDS011;63883;48.996;20.804;2023-07-24T10:55:01;6.78;;;5.28;;
75289;SDS011;63883;48.996;20.804;2023-07-24T10:57:28;7.85;;;4.95;;
75289;SDS011;63883;48.996;20.804;2023-07-24T10:59:54;5.90;;;4.88;;
75289;SDS011;63883;48.996;20.804;2023-07-24T11:02:20;6.70;;;5.28;;
75289;SDS011;63883;48.996;20.804;2023-07-24T11:04:46;7.38;;;5.32;;
75289;SDS011;63883;48.996;20.804;2023-07-24T11:07:12;6.28;;;4.63;;
75289;SDS011;63883;48.996;20.804;2023-07-24T11:09:39;7.00;;;4.75;;
75289;SDS011;63883;48.996;20.804;2023-07-24T11:12:09;6.47;;;5.28;;
75289;SDS011;63883;48.996;20.804;2023-07-24T11:14:35;6.50;;;5.10;;
75289;SDS011;63883;48.996;20.804;2023-07-24T11:17:01;6.07;;;4.93;;
75289;SDS011;63883;48.996;20.804;2023-07-24T11:19:27;6.65;;;5.00;;
75289;SDS011;63883;48.996;20.804;2023-07-24T11:21:52;8.60;;;5.35;;
75289;SDS011;63883;48.996;20.804;2023-07-24T11:24:18;7.10;;;5.57;;
75289;SDS011;63883;48.996;20.804;2023-07-24T11:26:44;6.93;;;5.50;;
75289;SDS011;63883;48.996;20.804;2023-07-24T11:29:12;6.93;;;5.35;;
75289;SDS011;63883;48.996;20.804;2023-07-24T11:31:38;8.88;;;5.57;;
75289;SDS011;63883;48.996;20.804;2023-07-24T11:34:04;6.85;;;5.43;;
75289;SDS011;63883;48.996;20.804;2023-07-24T11:36:31;7.32;;;5.45;;
75289;SDS011;63883;48.996;20.804;2023-07-24T11:38:57;7.15;;;5.60;;
75289;SDS011;63883;48.996;20.804;2023-07-24T11:41:23;8.60;;;5.78;;
75289;SDS011;63883;48.996;20.804;2023-07-24T11:43:49;8.25;;;5.75;;
75289;SDS011;63883;48.996;20.804;2023-07-24T11:46:22;8.50;;;5.70;;
75289;SDS011;63883;48.996;20.804;2023-07-24T11:48:49;7.18;;;5.40;;
75289;SDS011;63883;48.996;20.804;2023-07-24T11:51:19;7.32;;;5.80;;
75289;SDS011;63883;48.996;20.804;2023-07-24T11:53:44;7.85;;;5.13;;
75289;SDS011;63883;48.996;20.804;2023-07-24T11:56:14;7.80;;;5.65;;
75289;SDS011;63883;48.996;20.804;2023-07-24T11:58:41;7.97;;;6.10;;
75289;SDS011;63883;48.996;20.804;2023-07-24T12:01:07;7.10;;;6.00;;
75289;SDS011;63883;48.996;20.804;2023-07-24T12:03:32;8.57;;;6.00;;
75289;SDS011;63883;48.996;20.804;2023-07-24T12:05:58;8.02;;;5.80;;
75289;SDS011;63883;48.996;20.804;2023-07-24T12:08:31;7.80;;;5.78;;
75289;SDS011;63883;48.996;20.804;2023-07-24T12:10:59;8.00;;;5.38;;
75289;SDS011;63883;48.996;20.804;2023-07-24T12:13:25;7.38;;;5.70;;
75289;SDS011;63883;48.996;20.804;2023-07-24T12:15:51;7.22;;;5.32;;
75289;SDS011;63883;48.996;20.804;2023-07-24T12:18:17;8.43;;;5.45;;
75289;SDS011;63883;48.996;20.804;2023-07-24T12:20:43;8.48;;;5.60;;
75289;SDS011;63883;48.996;20.804;2023-07-24T12:23:08;7.63;;;5.38;;
75289;SDS011;63883;48.996;20.804;2023-07-24T12:25:34;9.40;;;6.25;;
75289;SDS011;63883;48.996;20.804;2023-07-24T12:28:00;8.45;;;6.00;;
75289;SDS011;63883;48.996;20.804;2023-07-24T12:30:25;8.70;;;5.90;;
75289;SDS011;63883;48.996;20.804;2023-07-24T12:32:51;8.13;;;5.63;;
75289;SDS011;63883;48.996;20.804;2023-07-24T12:35:17;8.27;;;5.63;;
75289;SDS011;63883;48.996;20.804;2023-07-24T12:37:43;7.45;;;5.43;;
75289;SDS011;63883;48.996;20.804;2023-07-24T12:40:09;9.35;;;5.72;;
75289;SDS011;63883;48.996;20.804;2023-07-24T12:42:35;7.45;;;5.50;;
75289;SDS011;63883;48.996;20.804;2023-07-24T12:45:01;7.97;;;5.65;;
75289;SDS011;63883;48.996;20.804;2023-07-24T12:47:30;9.20;;;5.75;;
75289;SDS011;63883;48.996;20.804;2023-07-24T12:49:56;7.50;;;6.07;;
75289;SDS011;63883;48.996;20.804;2023-07-24T12:52:24;7.28;;;5.40;;
75289;SDS011;63883;48.996;20.804;2023-07-24T12:54:50;8.02;;;5.20;;
75289;SDS011;63883;48.996;20.804;2023-07-24T12:57:16;6.95;;;5.15;;
75289;SDS011;63883;48.996;20.804;2023-07-24T12:59:42;7.45;;;5.28;;
75289;SDS011;63883;48.996;20.804;2023-07-24T13:02:07;7.88;;;5.50;;
75289;SDS011;63883;48.996;20.804;2023-07-24T13:04:33;10.10;;;6.13;;
75289;SDS011;63883;48.996;20.804;2023-07-24T13:06:59;7.55;;;5.68;;
75289;SDS011;63883;48.996;20.804;2023-07-24T13:09:25;9.10;;;5.32;;
75289;SDS011;63883;48.996;20.804;2023-07-24T13:11:52;6.80;;;5.60;;
75289;SDS011;63883;48.996;20.804;2023-07-24T13:14:19;7.18;;;5.50;;
75289;SDS011;63883;48.996;20.804;2023-07-24T13:16:45;7.63;;;5.03;;
75289;SDS011;63883;48.996;20.804;2023-07-24T13:19:11;7.65;;;5.72;;
75289;SDS011;63883;48.996;20.804;2023-07-24T13:21:37;7.95;;;6.10;;
75289;SDS011;63883;48.996;20.804;2023-07-24T13:24:04;9.02;;;5.53;;
75289;SDS011;63883;48.996;20.804;2023-07-24T13:26:30;6.85;;;5.30;;
75289;SDS011;63883;48.996;20.804;2023-07-24T13:28:56;7.78;;;5.85;;
75289;SDS011;63883;48.996;20.804;2023-07-24T13:31:21;6.75;;;5.25;;
75289;SDS011;63883;48.996;20.804;2023-07-24T13:33:47;7.45;;;5.72;;
75289;SDS011;63883;48.996;20.804;2023-07-24T13:36:13;7.13;;;5.70;;
75289;SDS011;63883;48.996;20.804;2023-07-24T13:38:39;6.95;;;5.53;;
75289;SDS011;63883;48.996;20.804;2023-07-24T13:41:06;9.98;;;5.82;;
75289;SDS011;63883;48.996;20.804;2023-07-24T13:43:33;7.55;;;6.30;;
75289;SDS011;63883;48.996;20.804;2023-07-24T13:45:59;8.45;;;5.90;;
75289;SDS011;63883;48.996;20.804;2023-07-24T13:48:29;7.40;;;5.60;;
75289;SDS011;63883;48.996;20.804;2023-07-24T13:50:56;8.43;;;6.10;;
75289;SDS011;63883;48.996;20.804;2023-07-24T13:53:21;8.32;;;6.07;;
75289;SDS011;63883;48.996;20.804;2023-07-24T13:55:48;8.32;;;6.00;;
75289;SDS011;63883;48.996;20.804;2023-07-24T13:58:13;7.65;;;5.80;;
75289;SDS011;63883;48.996;20.804;2023-07-24T14:00:39;7.10;;;5.72;;
75289;SDS011;63883;48.996;20.804;2023-07-24T14:03:05;9.02;;;6.32;;
75289;SDS011;63883;48.996;20.804;2023-07-24T14:05:32;8.25;;;6.20;;
75289;SDS011;63883;48.996;20.804;2023-07-24T14:07:58;8.48;;;6.10;;
75289;SDS011;63883;48.996;20.804;2023-07-24T14:10:24;7.78;;;6.22;;
75289;SDS011;63883;48.996;20.804;2023-07-24T14:12:50;8.70;;;5.85;;
75289;SDS011;63883;48.996;20.804;2023-07-24T14:15:15;7.72;;;5.53;;
75289;SDS011;63883;48.996;20.804;2023-07-24T14:17:41;7.75;;;5.75;;
75289;SDS011;63883;48.996;20.804;2023-07-24T14:20:07;7.97;;;5.88;;
75289;SDS011;63883;48.996;20.804;2023-07-24T14:22:33;8.30;;;6.38;;
75289;SDS011;63883;48.996;20.804;2023-07-24T14:24:59;9.00;;;6.32;;
75289;SDS011;63883;48.996;20.804;2023-07-24T14:27:24;7.80;;;5.75;;
75289;SDS011;63883;48.996;20.804;2023-07-24T14:29:50;8.10;;;6.22;;
75289;SDS011;63883;48.996;20.804;2023-07-24T14:32:16;8.77;;;6.13;;
75289;SDS011;63883;48.996;20.804;2023-07-24T14:34:42;8.57;;;6.57;;
75289;SDS011;63883;48.996;20.804;2023-07-24T14:37:07;8.18;;;5.75;;
75289;SDS011;63883;48.996;20.804;2023-07-24T14:39:33;8.88;;;6.13;;